Afton, Texas
Current Conditions -  °F | °C
As of 7:53 AM on Saturday 20 Dec 2014 (Local Time) from KCDS Reporting Station
Overcast Overcast  
Wind Chill: 39°   Ceiling: 2100
Heat Index: 42°   Visibility: 10mi
Dew Point: 39°   Wind: 5mph
Humidity: 89%   Direction: 180°S
Pressure: 30.17"   Gusts: NA
Location:  33.76°N, 100.82°W
Report Text: KCDS 201353Z AUTO 18004KT 10SM OVC021 06/04 A3017 RMK AO2 SLP219 T00560039
Loading
Personal Weather Stations






























Interactive Weather Map New forecast layout! Learn more

10-Day Weather Forecast

Advertisements
Track Severe Weather on mobile